Shoshone, California Weather observations

Data are for observation ending at time listed.
 Day   Time    Ave.   Ave.  Ave.  Vector   Max.   Stn.    Total    Solar   Ave.  
  of    of     Air    Rel.  Wind   Wind    Wind   Baro.  Precip.   Rad.    Soil  
Year   Day     Temp.  Hum.  Speed  Dir.    Gust   Pres.                    Temp. 
2014   (PST)    F      %     mph   deg.    mph     mb.     in.     W/m2     F   
------------------------------------------------------------------------------
 295    5:00   47.6    46    0.7   338      4.7    967     0.00       0    99999.0
 295    6:00   47.9    44    0.7    66      2.4    968     0.00       2    99999.0
 295    7:00   49.1    42    1.1    56      3.9    968     0.00      64    99999.0
 295    8:00   58.8    33    0.3    19      2.1    970     0.00     259    99999.0
 295    9:00   68.9    17    1.5   300      5.4    970     0.00     437    99999.0
 295   10:00   75.1    12    5.1   336     11.4    970     0.00     579    99999.0
 295   11:00   78.9    12    3.8     3      9.6    970     0.00     700    99999.0
 295   12:00   82.6    11    1.9   270      4.9    969     0.00     720    99999.0
 295   13:00   84.8    10    1.9   291      6.2    968     0.00     704    99999.0
 295   14:00   87.0    10    2.1   202      7.2    968     0.00     593    99999.0
 295   15:00   88.0    11    2.6   183      8.1    968     0.00     475    99999.0
 295   16:00   88.0    12    2.2   152      6.6    967     0.00     276    114.3
 295   17:00   85.0    13    0.6   157      6.6    967     0.00      76    108.5
 295   18:00   77.6    16    0.0   181      1.0    967     0.00       1    107.1
 295   19:00   72.0    20    0.3    71      3.0    968     0.00       0    108.5
 295   20:00   66.8    22    0.9     8      3.4    968     0.00       0    113.0
 295   21:00   63.4    25    0.0   354      1.0    968     0.00       0    118.6
 295   22:00   61.8    24    0.1    20      1.2    968     0.00       1    99999.0
 295   23:00   60.6    25    1.1   327      3.6    969     0.00       1    99999.0
 296    0:00   56.6    29    0.8    20      2.7    969     0.00       1    99999.0
 296    1:00   53.7    30    1.4   341      4.2    969     0.00       1    99999.0
 296    2:00   53.9    30    0.9    62      4.6    969     0.00       1    99999.0
 296    3:00   50.8    33    1.1     2      4.8    969     0.00       1    99999.0
 296    4:00   50.3    33    0.9    80      4.5    969     0.00       1    99999.0

Return to Shoshone, California graphs page.


Western Regional Climate Center,wrcc@dri.edu